Time;durP1;ratioP1;P1;durP2;ratioP2;P2;SDS_P1;SDS_P2;PMS_P1;PMS_P2;Temp;Humidity;BMP_temperature;BMP_pressure;BME280_temperature;BME280_humidity;BME280_pressure;Samples;Min_cycle;Max_cycle;Signal;HPM_P1;HPM_P2
2022/04/03 00:00:42;;;;;;;11.02;7.28;;;22.40;55.60;;;;;;5076083;28;20041;-70
2022/04/03 00:03:08;;;;;;;9.32;7.55;;;22.40;55.50;;;;;;5076664;28;20043;-70
2022/04/03 00:05:38;;;;;;;10.23;8.18;;;22.30;55.40;;;;;;5076616;28;20059;-70
2022/04/03 00:08:05;;;;;;;13.45;7.97;;;22.40;55.30;;;;;;5076719;28;20033;-69
2022/04/03 00:10:34;;;;;;;9.95;7.97;;;22.40;55.20;;;;;;5076612;28;20075;-70
2022/04/03 00:13:00;;;;;;;11.30;8.40;;;22.40;55.30;;;;;;5076647;28;20049;-69
2022/04/03 00:15:27;;;;;;;13.18;8.07;;;22.40;55.20;;;;;;5076587;28;20109;-69
2022/04/03 00:17:53;;;;;;;10.15;7.55;;;22.40;55.50;;;;;;5076355;28;20063;-70
2022/04/03 00:20:19;;;;;;;11.00;8.45;;;22.30;55.70;;;;;;5076486;28;20060;-70
2022/04/03 00:22:48;;;;;;;11.98;8.27;;;22.30;55.60;;;;;;5076109;28;20041;-70
2022/04/03 00:25:16;;;;;;;11.10;8.27;;;22.30;55.60;;;;;;5075672;28;20033;-69
2022/04/03 00:27:42;;;;;;;10.88;8.70;;;22.30;55.50;;;;;;5076272;28;20068;-70
2022/04/03 00:30:08;;;;;;;9.82;7.63;;;22.20;55.60;;;;;;5076479;28;20069;-70
2022/04/03 00:32:35;;;;;;;10.40;8.10;;;22.20;55.50;;;;;;5076443;28;20092;-70
2022/04/03 00:35:03;;;;;;;13.88;8.52;;;22.10;55.60;;;;;;5076238;28;20037;-69
2022/04/03 00:37:29;;;;;;;11.02;8.45;;;22.10;55.60;;;;;;5076059;28;20037;-70
2022/04/03 00:39:55;;;;;;;12.07;9.23;;;22.00;55.50;;;;;;5076399;28;20037;-69
2022/04/03 00:42:21;;;;;;;8.82;7.38;;;22.20;55.40;;;;;;5076248;28;20072;-69
2022/04/03 00:44:48;;;;;;;9.13;7.63;;;22.10;55.40;;;;;;5076427;28;20097;-70
2022/04/03 00:47:16;;;;;;;11.07;8.75;;;22.10;55.80;;;;;;5076105;28;20055;-70
2022/04/03 00:49:42;;;;;;;9.90;8.15;;;22.10;55.60;;;;;;5076338;28;20037;-70
2022/04/03 00:52:09;;;;;;;12.30;8.50;;;22.00;55.50;;;;;;5076059;28;20044;-70
2022/04/03 00:54:36;;;;;;;11.00;7.97;;;22.20;55.50;;;;;;5076135;28;20112;-69
2022/04/03 00:57:09;;;;;;;12.55;8.90;;;22.20;55.40;;;;;;5076136;28;20041;-69
2022/04/03 00:59:35;;;;;;;10.43;8.13;;;22.20;55.30;;;;;;5079302;28;20048;-69
2022/04/03 01:02:02;;;;;;;10.32;7.97;;;22.20;55.30;;;;;;5079387;28;20045;-70
2022/04/03 01:04:28;;;;;;;9.48;7.50;;;22.30;55.40;;;;;;5080150;28;20041;-70
2022/04/03 01:06:57;;;;;;;10.95;8.25;;;22.20;55.20;;;;;;5079811;28;20047;-70
2022/04/03 01:09:23;;;;;;;11.45;8.70;;;22.20;55.20;;;;;;5079945;28;20041;-70
2022/04/03 01:11:49;;;;;;;10.52;8.48;;;22.10;55.30;;;;;;5080050;28;20071;-70
2022/04/03 01:14:30;;;;;;;13.65;8.90;;;22.20;55.30;;;;;;5079736;28;20045;-69
2022/04/03 01:16:56;;;;;;;10.00;7.68;;;22.20;55.40;;;;;;5079822;28;20052;-69
2022/04/03 01:19:22;;;;;;;8.45;7.60;;;22.00;55.50;;;;;;5079799;28;20048;-70
2022/04/03 01:21:48;;;;;;;10.80;7.78;;;22.10;55.80;;;;;;5079475;28;20113;-70
2022/04/03 01:24:21;;;;;;;10.80;7.50;;;22.00;55.60;;;;;;5079809;28;20045;-70
2022/04/03 01:26:49;;;;;;;10.05;8.00;;;22.10;55.60;;;;;;5079479;28;20120;-69
2022/04/03 01:29:15;;;;;;;11.55;8.30;;;22.00;55.30;;;;;;5079603;28;20049;-70
2022/04/03 01:31:42;;;;;;;10.23;7.78;;;22.00;55.40;;;;;;5078796;28;20097;-70
2022/04/03 01:34:08;;;;;;;11.45;7.72;;;22.00;55.40;;;;;;5079479;28;20478;-70
2022/04/03 01:36:35;;;;;;;10.23;7.75;;;22.00;55.40;;;;;;5079284;28;20096;-69
2022/04/03 01:39:01;;;;;;;10.65;7.53;;;21.90;55.40;;;;;;5079269;28;20049;-69
2022/04/03 01:41:27;;;;;;;9.65;8.05;;;22.00;55.40;;;;;;5079149;28;20041;-69
2022/04/03 01:43:53;;;;;;;9.60;7.70;;;22.00;55.30;;;;;;5079445;28;20044;-70
2022/04/03 01:46:20;;;;;;;10.57;8.25;;;22.00;55.30;;;;;;5079223;28;20029;-70
2022/04/03 01:48:46;;;;;;;10.27;7.40;;;21.90;55.30;;;;;;5079003;28;20061;-70
2022/04/03 01:51:12;;;;;;;11.90;8.73;;;21.80;55.30;;;;;;5079257;28;20041;-70
2022/04/03 01:53:38;;;;;;;11.02;7.65;;;21.90;55.60;;;;;;5079303;28;20060;-69
2022/04/03 01:56:06;;;;;;;10.05;7.88;;;21.80;55.40;;;;;;5078213;28;20041;-70
2022/04/03 01:58:34;;;;;;;9.85;7.88;;;21.70;55.60;;;;;;5078904;28;20052;-70
2022/04/03 02:01:01;;;;;;;11.82;8.10;;;21.70;55.50;;;;;;5078967;28;20083;-70
2022/04/03 02:03:28;;;;;;;9.23;7.15;;;21.70;55.60;;;;;;5078747;28;20041;-70
2022/04/03 02:05:57;;;;;;;9.23;6.90;;;21.70;55.60;;;;;;5078774;28;20101;-70
2022/04/03 02:08:25;;;;;;;10.00;7.75;;;21.60;55.30;;;;;;5078669;28;20100;-69
2022/04/03 02:10:52;;;;;;;8.98;7.88;;;21.70;55.40;;;;;;5077872;28;20040;-70
2022/04/03 02:13:18;;;;;;;12.25;8.95;;;21.60;55.20;;;;;;5078840;28;20052;-69
2022/04/03 02:15:44;;;;;;;12.13;7.85;;;21.60;55.10;;;;;;5078719;28;20037;-69
2022/04/03 02:18:10;;;;;;;10.70;8.32;;;21.70;55.30;;;;;;5078270;28;20040;-69
2022/04/03 02:20:37;;;;;;;12.27;8.40;;;21.70;55.00;;;;;;5078675;28;20040;-70
2022/04/03 02:23:06;;;;;;;9.07;8.00;;;21.80;55.00;;;;;;5078769;28;20075;-69
2022/04/03 02:25:32;;;;;;;12.18;8.63;;;21.70;55.00;;;;;;5078394;28;20068;-70
2022/04/03 02:28:01;;;;;;;11.13;8.02;;;21.70;55.00;;;;;;5078410;28;20037;-70
2022/04/03 02:30:27;;;;;;;9.75;8.50;;;21.70;55.10;;;;;;5078452;28;20033;-70
2022/04/03 02:32:54;;;;;;;11.02;8.45;;;21.70;55.00;;;;;;5077530;28;20041;-70
2022/04/03 02:35:21;;;;;;;10.93;7.75;;;21.70;55.00;;;;;;5078443;28;20045;-70
2022/04/03 02:37:47;;;;;;;10.65;8.57;;;21.70;55.00;;;;;;5077653;28;20072;-70
2022/04/03 02:40:15;;;;;;;9.70;7.85;;;21.60;54.90;;;;;;5078312;28;20040;-70
2022/04/03 02:42:42;;;;;;;10.68;7.95;;;21.60;55.00;;;;;;5077480;28;20112;-70
2022/04/03 02:45:12;;;;;;;11.98;8.20;;;21.60;55.00;;;;;;5077984;28;20045;-70
2022/04/03 02:47:39;;;;;;;9.77;7.68;;;21.50;55.00;;;;;;5077912;28;20101;-70
2022/04/03 02:50:06;;;;;;;10.10;7.53;;;21.50;54.90;;;;;;5078176;28;20116;-70
2022/04/03 02:52:32;;;;;;;9.75;8.13;;;21.50;55.00;;;;;;5077884;28;20063;-70
2022/04/03 02:54:59;;;;;;;9.82;7.22;;;21.50;55.10;;;;;;5077596;28;20040;-70
2022/04/03 02:57:25;;;;;;;12.27;8.65;;;21.60;54.90;;;;;;5077735;28;20048;-69
2022/04/03 02:59:51;;;;;;;10.77;8.00;;;21.50;54.60;;;;;;5077814;28;20096;-69
2022/04/03 03:02:17;;;;;;;10.50;8.00;;;21.50;54.60;;;;;;5077932;28;20062;-70
2022/04/03 03:04:44;;;;;;;9.88;7.78;;;21.50;54.70;;;;;;5077714;28;20440;-70
2022/04/03 03:07:11;;;;;;;10.40;8.27;;;21.50;54.70;;;;;;5077701;28;20044;-70
2022/04/03 03:09:37;;;;;;;11.32;8.27;;;21.50;54.70;;;;;;5077435;28;20104;-69
2022/04/03 03:12:05;;;;;;;10.70;8.50;;;21.60;54.80;;;;;;5069162;28;20041;-69
2022/04/03 03:14:32;;;;;;;12.38;8.43;;;21.50;54.80;;;;;;5073543;28;20072;-70
2022/04/03 03:16:58;;;;;;;12.32;9.60;;;21.50;54.80;;;;;;5077512;28;20067;-69
2022/04/03 03:19:24;;;;;;;12.75;8.95;;;21.40;54.60;;;;;;5077340;28;20040;-70
2022/04/03 03:21:50;;;;;;;11.93;8.98;;;21.40;54.70;;;;;;5077023;28;20055;-70
2022/04/03 03:24:16;;;;;;;11.75;9.23;;;21.50;54.70;;;;;;5077382;28;20049;-69
2022/04/03 03:26:43;;;;;;;12.18;8.63;;;21.40;54.50;;;;;;5077189;28;20036;-70
2022/04/03 03:29:10;;;;;;;11.32;8.38;;;21.40;54.50;;;;;;5077348;28;20029;-69
2022/04/03 03:31:36;;;;;;;11.13;8.57;;;21.50;54.50;;;;;;5077363;28;20064;-69
2022/04/03 03:34:02;;;;;;;10.25;7.90;;;21.40;54.40;;;;;;5077131;28;20063;-70
2022/04/03 03:36:30;;;;;;;13.18;9.10;;;21.50;54.40;;;;;;5077199;28;20040;-70
2022/04/03 03:38:56;;;;;;;15.02;9.98;;;21.50;54.20;;;;;;5076876;28;20041;-69
2022/04/03 03:41:22;;;;;;;10.27;8.88;;;21.60;54.20;;;;;;5076284;28;20104;-70
2022/04/03 03:43:48;;;;;;;10.75;9.02;;;21.50;54.20;;;;;;5077111;28;20059;-69
2022/04/03 03:46:15;;;;;;;11.13;9.13;;;21.40;54.00;;;;;;5077000;28;20037;-69
2022/04/03 03:48:41;;;;;;;10.18;8.32;;;21.40;54.10;;;;;;5076768;28;20033;-70
2022/04/03 03:51:07;;;;;;;9.73;8.02;;;21.50;54.10;;;;;;5076675;28;20044;-69
2022/04/03 03:53:33;;;;;;;11.38;9.18;;;21.50;54.20;;;;;;5076998;28;20041;-69
2022/04/03 03:56:00;;;;;;;11.45;8.63;;;21.40;54.00;;;;;;5076665;28;20044;-70
2022/04/03 03:58:26;;;;;;;11.88;8.80;;;21.40;54.20;;;;;;5076792;28;20071;-69
2022/04/03 04:00:52;;;;;;;12.07;8.63;;;21.40;54.10;;;;;;5076551;28;20060;-69
2022/04/03 04:03:18;;;;;;;9.18;7.40;;;21.40;54.10;;;;;;5076081;28;20100;-70
2022/04/03 04:05:45;;;;;;;12.02;8.43;;;21.40;54.10;;;;;;5075966;28;20037;-70
2022/04/03 04:08:11;;;;;;;9.82;7.57;;;21.60;54.00;;;;;;5076073;28;20037;-70
2022/04/03 04:10:37;;;;;;;9.95;7.95;;;21.60;53.90;;;;;;5075934;28;20445;-69
2022/04/03 04:13:03;;;;;;;11.45;7.82;;;21.60;53.60;;;;;;5076142;28;20096;-69
2022/04/03 04:15:30;;;;;;;8.82;7.03;;;21.70;53.60;;;;;;5075829;28;20067;-70
2022/04/03 04:17:56;;;;;;;11.52;8.00;;;21.70;53.20;;;;;;5075966;28;20073;-70
2022/04/03 04:20:23;;;;;;;13.23;8.43;;;21.80;53.30;;;;;;5075749;28;20054;-70
2022/04/03 04:22:50;;;;;;;10.82;6.70;;;21.90;53.30;;;;;;5075871;28;20092;-72
2022/04/03 04:25:18;;;;;;;9.23;6.72;;;21.80;55.40;;;;;;5075269;28;20041;-73
2022/04/03 04:27:44;;;;;;;8.82;6.75;;;22.20;55.70;;;;;;5076005;28;20063;-74
2022/04/03 04:30:13;;;;;;;11.13;7.55;;;22.50;55.80;;;;;;5074394;28;20060;-74
2022/04/03 04:32:40;;;;;;;9.13;7.90;;;22.80;55.80;;;;;;5075271;28;20041;-74
2022/04/03 04:35:07;;;;;;;11.35;7.40;;;22.70;51.50;;;;;;5079969;28;20037;-74
2022/04/03 04:37:34;;;;;;;10.75;8.18;;;22.80;50.40;;;;;;5079732;28;20132;-72
2022/04/03 04:40:01;;;;;;;11.80;8.75;;;22.70;49.10;;;;;;5079852;28;20067;-72
2022/04/03 04:42:28;;;;;;;13.40;9.73;;;22.60;48.30;;;;;;5079558;28;20108;-72
2022/04/03 04:44:54;;;;;;;10.70;9.05;;;22.40;48.10;;;;;;5079695;28;20041;-72
2022/04/03 04:47:20;;;;;;;9.70;7.93;;;22.30;48.90;;;;;;5079986;28;20044;-72
2022/04/03 04:49:46;;;;;;;9.13;7.00;;;22.20;49.50;;;;;;5079685;28;20119;-71
2022/04/03 04:52:13;;;;;;;8.73;7.57;;;22.10;50.20;;;;;;5079558;28;20048;-71
2022/04/03 04:54:39;;;;;;;8.45;7.03;;;22.10;50.80;;;;;;5079566;28;20045;-71
2022/04/03 04:57:06;;;;;;;9.43;7.50;;;22.10;51.10;;;;;;5079638;28;20051;-70
2022/04/03 04:59:32;;;;;;;8.27;6.22;;;22.00;51.30;;;;;;5079190;28;20041;-71
2022/04/03 05:01:59;;;;;;;5.32;4.07;;;21.90;51.90;;;;;;5079494;28;20079;-72
2022/04/03 05:04:26;;;;;;;6.82;5.65;;;21.90;46.10;;;;;;5079413;28;20048;-71
2022/04/03 05:06:53;;;;;;;6.05;3.72;;;22.20;45.60;;;;;;5079237;28;20409;-71
2022/04/03 05:09:20;;;;;;;6.20;4.28;;;22.30;44.10;;;;;;5079365;28;20041;-71
2022/04/03 05:11:46;;;;;;;6.32;4.40;;;22.20;42.00;;;;;;5079177;28;20040;-71
2022/04/03 05:14:13;;;;;;;5.38;4.88;;;22.20;42.20;;;;;;5078615;28;20045;-70
2022/04/03 05:16:40;;;;;;;4.82;4.20;;;22.30;42.30;;;;;;5078036;28;20075;-73
2022/04/03 05:19:07;;;;;;;6.07;4.05;;;22.20;42.40;;;;;;5080989;28;20195;-71
2022/04/03 05:21:33;;;;;;;7.40;5.35;;;22.20;41.10;;;;;;5075861;28;20099;-70
2022/04/03 05:24:00;;;;;;;6.40;5.00;;;22.30;44.60;;;;;;5075342;28;20052;-71
2022/04/03 05:26:26;;;;;;;5.47;4.05;;;22.40;48.70;;;;;;5078644;28;20044;-71
2022/04/03 05:28:52;;;;;;;8.00;6.80;;;22.60;44.70;;;;;;5078490;28;20116;-71
2022/04/03 05:31:18;;;;;;;9.18;5.70;;;22.40;41.40;;;;;;5078538;28;20037;-71
2022/04/03 05:33:45;;;;;;;8.50;7.60;;;22.50;40.50;;;;;;5078287;28;20047;-73
2022/04/03 05:36:12;;;;;;;6.05;4.53;;;22.40;40.10;;;;;;5078022;28;20049;-70
2022/04/03 05:38:38;;;;;;;7.47;6.13;;;22.60;41.50;;;;;;5078353;28;20053;-72
2022/04/03 05:41:04;;;;;;;6.85;5.25;;;22.60;41.70;;;;;;5078125;28;20052;-71
2022/04/03 05:43:30;;;;;;;8.98;6.78;;;22.50;42.10;;;;;;5078277;28;20048;-70
2022/04/03 05:45:57;;;;;;;8.50;6.55;;;22.80;48.90;;;;;;5075557;28;20037;-70
2022/04/03 05:48:23;;;;;;;10.85;6.85;;;22.80;53.00;;;;;;5078234;28;20043;-70
2022/04/03 05:50:50;;;;;;;8.45;6.82;;;22.80;53.40;;;;;;5078509;28;20037;-71
2022/04/03 05:53:16;;;;;;;11.43;7.25;;;22.70;53.90;;;;;;5078486;28;20066;-71
2022/04/03 05:55:42;;;;;;;9.38;7.43;;;22.60;55.20;;;;;;5077427;28;20041;-70
2022/04/03 05:58:08;;;;;;;8.88;7.63;;;22.50;55.60;;;;;;5078489;28;20116;-70
2022/04/03 06:00:34;;;;;;;9.85;7.80;;;22.50;58.50;;;;;;5078159;28;20098;-69
2022/04/03 06:03:02;;;;;;;8.98;7.35;;;22.50;56.90;;;;;;5078168;28;20037;-70
2022/04/03 06:05:31;;;;;;;10.80;7.68;;;22.50;56.40;;;;;;5078149;28;20087;-71
2022/04/03 06:07:57;;;;;;;9.32;7.13;;;22.30;56.40;;;;;;5078185;28;20041;-71
2022/04/03 06:10:25;;;;;;;9.32;7.00;;;22.20;56.70;;;;;;5077916;28;20037;-71
2022/04/03 06:12:59;;;;;;;8.02;6.82;;;22.20;56.60;;;;;;5077755;28;20041;-70
2022/04/03 06:15:34;;;;;;;8.00;6.82;;;22.20;57.70;;;;;;5077135;28;20037;-71
2022/04/03 06:18:11;;;;;;;9.63;7.03;;;22.10;57.80;;;;;;5078094;28;20051;-71
2022/04/03 06:20:38;;;;;;;13.60;7.63;;;22.10;58.10;;;;;;5076979;28;20075;-71
2022/04/03 06:23:15;;;;;;;7.60;6.63;;;22.00;57.70;;;;;;5077994;28;20044;-71
2022/04/03 06:25:43;;;;;;;9.00;7.63;;;22.00;57.60;;;;;;5077848;28;20040;-70
2022/04/03 06:28:09;;;;;;;9.20;6.57;;;21.90;58.60;;;;;;5077867;28;20037;-71
2022/04/03 06:30:36;;;;;;;7.82;6.68;;;21.80;58.30;;;;;;5077399;28;20045;-71
2022/04/03 06:33:02;;;;;;;7.97;7.10;;;21.80;58.40;;;;;;5077844;28;20041;-70
2022/04/03 06:35:29;;;;;;;9.40;7.38;;;21.80;58.50;;;;;;5077952;28;20024;-71
2022/04/03 06:37:56;;;;;;;8.18;6.57;;;21.70;58.50;;;;;;5076048;28;20044;-71
2022/04/03 06:40:23;;;;;;;9.00;7.10;;;21.90;62.10;;;;;;5077198;28;20040;-70
2022/04/03 06:42:50;;;;;;;8.88;6.60;;;21.90;60.80;;;;;;5077493;28;20075;-70
2022/04/03 06:45:17;;;;;;;9.40;6.85;;;21.80;60.00;;;;;;5077377;28;20041;-70
2022/04/03 06:47:43;;;;;;;8.25;6.18;;;21.80;60.00;;;;;;5077412;28;20047;-70
2022/04/03 06:50:10;;;;;;;9.27;6.45;;;21.90;60.10;;;;;;5077228;28;20040;-70
2022/04/03 06:52:36;;;;;;;9.02;6.53;;;22.00;59.70;;;;;;5077415;28;20056;-70
2022/04/03 06:55:04;;;;;;;8.10;6.75;;;22.00;59.90;;;;;;5077192;28;20561;-70
2022/04/03 06:57:30;;;;;;;8.18;6.68;;;21.90;59.20;;;;;;5076440;28;20061;-70
2022/04/03 06:59:57;;;;;;;9.38;6.93;;;22.10;58.60;;;;;;5077113;28;20044;-70
2022/04/03 07:02:23;;;;;;;9.15;7.45;;;22.10;58.90;;;;;;5076993;28;20044;-70
2022/04/03 07:04:58;;;;;;;7.47;6.53;;;22.00;58.70;;;;;;5076376;28;20041;-70
2022/04/03 07:07:25;;;;;;;10.15;7.18;;;22.00;58.50;;;;;;5075566;28;20054;-69
2022/04/03 07:09:52;;;;;;;9.57;7.65;;;22.00;58.30;;;;;;5075556;28;20044;-69
2022/04/03 07:12:20;;;;;;;9.02;7.15;;;22.10;58.30;;;;;;5075782;28;20056;-70
2022/04/03 07:14:47;;;;;;;8.98;6.68;;;22.10;58.30;;;;;;5076488;28;20059;-70
2022/04/03 07:17:13;;;;;;;9.60;6.72;;;22.10;57.90;;;;;;5076698;28;20045;-70
2022/04/03 07:19:39;;;;;;;8.90;7.03;;;21.90;58.40;;;;;;5076567;28;20049;-69
2022/04/03 07:22:05;;;;;;;10.98;7.55;;;22.10;58.30;;;;;;5076486;28;20065;-69
2022/04/03 07:24:31;;;;;;;8.85;6.47;;;21.90;58.70;;;;;;5076748;28;20064;-71
2022/04/03 07:26:57;;;;;;;8.43;6.93;;;22.00;60.00;;;;;;5076613;28;20074;-71
2022/04/03 07:29:25;;;;;;;12.30;7.53;;;22.00;60.10;;;;;;5076495;28;20037;-72
2022/04/03 07:31:51;;;;;;;9.13;7.15;;;22.00;58.80;;;;;;5076521;28;20109;-72
2022/04/03 07:34:18;;;;;;;8.77;6.43;;;22.00;59.30;;;;;;5076525;28;20045;-71
2022/04/03 07:36:44;;;;;;;7.95;6.25;;;21.90;58.80;;;;;;5076296;28;20566;-72
2022/04/03 07:39:11;;;;;;;8.43;6.38;;;21.90;59.40;;;;;;5076122;28;20093;-72
2022/04/03 07:41:38;;;;;;;8.75;6.43;;;22.00;59.60;;;;;;5076304;28;20044;-72
2022/04/03 07:44:08;;;;;;;6.32;5.63;;;21.90;60.20;;;;;;5076462;28;20096;-72
2022/04/03 07:46:37;;;;;;;5.22;4.55;;;22.00;59.90;;;;;;5076152;28;20076;-71
2022/04/03 07:49:04;;;;;;;5.80;5.20;;;21.90;59.80;;;;;;5076432;28;20071;-72
2022/04/03 07:51:31;;;;;;;7.88;6.10;;;22.00;59.60;;;;;;5076301;28;20045;-71
2022/04/03 07:53:57;;;;;;;5.05;3.22;;;22.00;60.00;;;;;;5076192;28;20049;-70
2022/04/03 07:56:23;;;;;;;6.03;5.10;;;22.10;60.20;;;;;;5076267;28;20045;-71
2022/04/03 07:58:49;;;;;;;6.78;5.55;;;22.20;58.50;;;;;;5076331;28;20080;-70
2022/04/03 08:01:16;;;;;;;3.75;2.95;;;22.40;56.40;;;;;;5075963;28;20032;-70
2022/04/03 08:03:42;;;;;;;7.97;5.88;;;22.40;52.90;;;;;;5076183;28;20037;-72
2022/04/03 08:06:09;;;;;;;6.13;5.53;;;22.50;50.00;;;;;;5076014;28;20052;-73
2022/04/03 08:08:35;;;;;;;10.82;5.43;;;22.40;47.10;;;;;;5075843;28;20047;-73
2022/04/03 08:11:02;;;;;;;3.95;3.58;;;22.30;48.00;;;;;;5075931;28;20271;-73
2022/04/03 08:13:28;;;;;;;6.65;5.20;;;22.40;48.60;;;;;;5075976;28;20051;-74
2022/04/03 08:15:55;;;;;;;5.70;5.07;;;22.30;48.60;;;;;;5075564;28;20048;-73
2022/04/03 08:18:22;;;;;;;10.23;5.75;;;22.40;46.80;;;;;;5075830;28;20052;-72
2022/04/03 08:20:48;;;;;;;5.65;4.90;;;22.20;48.40;;;;;;5075311;28;20075;-71
2022/04/03 08:23:14;;;;;;;7.07;5.20;;;22.30;47.20;;;;;;5075583;28;20108;-72
2022/04/03 08:25:40;;;;;;;6.72;5.93;;;22.10;48.30;;;;;;5075624;28;20037;-73
2022/04/03 08:28:09;;;;;;;8.10;5.38;;;22.20;45.60;;;;;;5075572;28;20043;-71
2022/04/03 08:30:37;;;;;;;8.18;6.78;;;22.20;48.10;;;;;;5075511;28;20064;-71
2022/04/03 08:33:05;;;;;;;5.63;5.00;;;22.30;45.50;;;;;;5075276;28;20048;-71
2022/04/03 08:35:38;;;;;;;6.82;5.82;;;22.10;47.80;;;;;;5074949;28;20045;-71
2022/04/03 08:38:05;;;;;;;6.30;5.32;;;22.20;48.00;;;;;;5075558;28;20076;-70
2022/04/03 08:40:33;;;;;;;6.25;5.65;;;22.10;48.30;;;;;;5075133;28;20060;-71
2022/04/03 08:43:00;;;;;;;20.35;7.88;;;22.20;48.60;;;;;;5075226;28;20076;-73
2022/04/03 08:45:28;;;;;;;8.32;6.57;;;22.30;49.20;;;;;;5075610;28;20097;-72
2022/04/03 08:47:56;;;;;;;9.30;5.90;;;22.40;48.80;;;;;;5075454;28;20060;-73
2022/04/03 08:50:33;;;;;;;7.25;5.75;;;22.20;50.60;;;;;;5075349;28;20089;-71
2022/04/03 08:53:02;;;;;;;9.57;6.15;;;22.40;53.10;;;;;;5075614;28;20044;-72
2022/04/03 08:55:30;;;;;;;22.52;11.18;;;22.50;46.40;;;;;;5074387;28;20040;-74
2022/04/03 08:57:56;;;;;;;13.63;9.45;;;22.70;45.80;;;;;;5075511;28;20060;-74
2022/04/03 09:00:23;;;;;;;13.57;9.30;;;22.90;45.50;;;;;;5075318;28;20036;-75
2022/04/03 09:02:50;;;;;;;6.28;5.68;;;22.90;44.20;;;;;;5075261;28;20029;-73
2022/04/03 09:05:17;;;;;;;8.32;6.13;;;23.10;48.20;;;;;;5075124;28;20059;-74
2022/04/03 09:07:44;;;;;;;7.00;5.25;;;23.30;48.50;;;;;;5074792;28;20041;-73
2022/04/03 09:10:15;;;;;;;6.10;5.00;;;23.30;49.40;;;;;;5075237;28;20057;-73
2022/04/03 09:12:48;;;;;;;4.95;4.45;;;23.40;49.20;;;;;;5075301;28;20108;-74
2022/04/03 09:15:18;;;;;;;6.22;4.82;;;23.40;48.90;;;;;;5075321;28;20068;-73
2022/04/03 09:17:52;;;;;;;10.80;5.82;;;23.30;49.70;;;;;;5075346;28;20109;-72
2022/04/03 09:20:22;;;;;;;10.82;5.78;;;23.30;50.20;;;;;;5077288;28;20045;-75
2022/04/03 09:22:52;;;;;;;6.47;5.03;;;23.40;49.30;;;;;;5078322;28;20040;-74
2022/04/03 09:25:40;;;;;;;6.65;4.70;;;23.40;48.20;;;;;;5078755;28;20026;-75
2022/04/03 09:28:11;;;;;;;5.95;4.70;;;23.30;47.50;;;;;;5079008;28;20568;-74
2022/04/03 09:30:45;;;;;;;11.13;4.50;;;23.30;47.30;;;;;;5079077;28;20140;-74
2022/04/03 09:33:15;;;;;;;6.22;5.13;;;23.40;47.70;;;;;;5078096;28;20041;-74
2022/04/03 09:35:59;;;;;;;6.85;4.97;;;23.50;48.00;;;;;;5078842;28;20037;-74
2022/04/03 09:38:32;;;;;;;8.27;4.20;;;23.50;48.10;;;;;;5078691;28;20045;-73
2022/04/03 09:41:00;;;;;;;5.68;4.43;;;23.50;48.50;;;;;;5078704;28;20045;-73
2022/04/03 09:43:28;;;;;;;5.97;4.90;;;23.50;50.70;;;;;;5078853;28;20072;-72
2022/04/03 09:45:58;;;;;;;7.40;4.53;;;23.50;51.70;;;;;;5078451;28;20096;-72
2022/04/03 09:48:34;;;;;;;7.35;5.20;;;23.60;51.60;;;;;;5078861;28;20096;-73
2022/04/03 09:51:04;;;;;;;6.55;4.53;;;23.70;41.80;;;;;;5078607;28;20045;-72
2022/04/03 09:53:42;;;;;;;6.47;5.13;;;23.80;44.30;;;;;;5078237;28;20036;-72
2022/04/03 09:56:10;;;;;;;9.20;4.72;;;23.70;45.10;;;;;;5078407;28;20106;-72
2022/04/03 09:58:51;;;;;;;5.43;4.60;;;23.70;39.80;;;;;;5078598;28;20044;-72
2022/04/03 10:01:31;;;;;;;7.53;4.07;;;23.80;37.80;;;;;;5078247;28;20051;-72
2022/04/03 10:04:02;;;;;;;8.82;5.43;;;23.70;35.30;;;;;;5078230;28;20040;-73
2022/04/03 10:06:30;;;;;;;6.70;3.58;;;23.60;37.40;;;;;;5078284;28;20048;-74
2022/04/03 10:08:57;;;;;;;5.40;4.13;;;23.70;37.50;;;;;;5078360;28;20055;-72
2022/04/03 10:11:24;;;;;;;6.38;4.10;;;23.60;39.90;;;;;;5078068;28;20045;-72
2022/04/03 10:13:50;;;;;;;6.68;5.03;;;23.80;43.30;;;;;;5078229;28;20048;-73
2022/04/03 10:16:18;;;;;;;5.95;4.85;;;23.90;53.20;;;;;;5077755;28;20041;-73
2022/04/03 10:18:46;;;;;;;5.95;4.47;;;24.20;46.00;;;;;;5078185;28;20041;-75
2022/04/03 10:21:39;;;;;;;6.25;4.40;;;24.00;42.60;;;;;;5078206;28;20048;-74
2022/04/03 10:24:16;;;;;;;4.88;3.83;;;24.00;43.40;;;;;;5077940;28;20043;-73
2022/04/03 10:26:48;;;;;;;4.45;3.90;;;24.10;53.20;;;;;;5077887;28;20060;-72
2022/04/03 10:29:15;;;;;;;7.97;4.90;;;24.40;51.30;;;;;;5077756;28;20037;-73
2022/04/03 10:31:55;;;;;;;5.25;4.75;;;24.90;47.30;;;;;;5076216;28;20305;-73
2022/04/03 10:34:22;;;;;;;4.80;4.40;;;25.00;46.20;;;;;;5077817;28;20132;-72
2022/04/03 10:36:53;;;;;;;5.70;4.82;;;24.90;46.70;;;;;;5076998;28;20104;-72
2022/04/03 10:39:26;;;;;;;6.43;5.07;;;24.80;46.20;;;;;;5077638;28;20068;-71
2022/04/03 10:42:21;;;;;;;5.55;4.72;;;24.80;47.00;;;;;;5076766;28;20049;-72
2022/04/03 10:45:13;;;;;;;7.97;5.22;;;24.60;46.70;;;;;;5077425;28;20102;-73
2022/04/03 10:47:41;;;;;;;5.55;4.65;;;24.60;47.20;;;;;;5077536;28;20071;-74
2022/04/03 10:50:11;;;;;;;6.55;4.63;;;24.40;47.40;;;;;;5077473;28;20047;-73
2022/04/03 10:52:37;;;;;;;5.13;4.38;;;24.40;47.60;;;;;;5076775;28;20032;-73
2022/04/03 10:55:25;;;;;;;9.40;4.72;;;24.30;48.00;;;;;;5077225;28;20029;-73
2022/04/03 10:58:02;;;;;;;5.95;4.55;;;24.30;46.90;;;;;;5076680;28;20075;-73
2022/04/03 11:00:28;;;;;;;6.25;3.78;;;24.10;48.50;;;;;;5077230;28;20032;-75
2022/04/03 11:02:58;;;;;;;4.50;3.83;;;24.10;48.90;;;;;;5076241;28;20032;-75
2022/04/03 11:05:27;;;;;;;4.57;3.80;;;24.00;48.70;;;;;;5076416;28;20028;-74
2022/04/03 11:07:59;;;;;;;4.30;3.55;;;23.80;49.30;;;;;;5077166;28;20106;-73
2022/04/03 11:10:48;;;;;;;4.60;3.70;;;24.00;49.30;;;;;;5077150;28;20040;-73
2022/04/03 11:13:16;;;;;;;3.83;3.50;;;23.90;49.40;;;;;;5076761;28;20285;-74
2022/04/03 11:15:45;;;;;;;4.38;3.92;;;23.70;48.40;;;;;;5076720;28;20105;-74
2022/04/03 11:18:30;;;;;;;4.38;3.28;;;23.60;49.40;;;;;;5076627;28;20045;-74
2022/04/03 11:21:09;;;;;;;4.47;4.00;;;23.70;49.00;;;;;;5076779;28;20108;-74
2022/04/03 11:23:39;;;;;;;3.58;3.20;;;23.70;49.00;;;;;;5076710;28;20037;-74
2022/04/03 11:26:07;;;;;;;7.78;4.32;;;23.50;49.50;;;;;;5059157;28;20033;-73
2022/04/03 11:28:34;;;;;;;4.53;4.10;;;23.60;50.00;;;;;;5076216;28;20036;-72
2022/04/03 11:31:01;;;;;;;4.63;3.70;;;23.50;49.20;;;;;;5076648;28;20083;-72
2022/04/03 11:33:29;;;;;;;4.05;3.20;;;23.70;50.90;;;;;;5076821;28;20092;-72
2022/04/03 11:36:08;;;;;;;4.47;2.72;;;23.60;49.20;;;;;;5076464;28;20044;-73
2022/04/03 11:38:36;;;;;;;4.38;3.78;;;23.70;50.90;;;;;;5076281;28;20052;-74
2022/04/03 11:41:09;;;;;;;6.00;4.18;;;23.70;52.00;;;;;;5076187;28;20045;-72
2022/04/03 11:43:35;;;;;;;3.50;3.20;;;23.70;51.20;;;;;;5075239;28;20036;-72
2022/04/03 11:46:04;;;;;;;3.88;3.58;;;23.60;47.00;;;;;;5074945;28;20037;-73
2022/04/03 11:48:33;;;;;;;4.32;3.80;;;23.50;48.40;;;;;;5075672;28;20036;-72
2022/04/03 11:51:11;;;;;;;4.45;4.00;;;23.50;48.40;;;;;;5075629;28;20071;-72
2022/04/03 11:53:39;;;;;;;5.03;4.53;;;23.50;48.80;;;;;;5076004;28;20043;-73
2022/04/03 11:56:13;;;;;;;5.75;4.10;;;23.30;47.70;;;;;;5075915;28;20033;-72
2022/04/03 11:58:50;;;;;;;5.50;4.07;;;23.30;49.30;;;;;;5075706;28;20043;-72
2022/04/03 12:01:38;;;;;;;4.68;4.15;;;23.10;50.30;;;;;;5074958;28;20053;-73
2022/04/03 12:04:12;;;;;;;4.53;3.97;;;23.10;49.40;;;;;;5075383;28;20037;-72
2022/04/03 12:06:41;;;;;;;4.00;3.38;;;23.00;47.60;;;;;;5074687;28;20045;-72
2022/04/03 12:09:12;;;;;;;5.22;3.55;;;23.10;50.50;;;;;;5075361;28;20043;-72
2022/04/03 12:11:40;;;;;;;3.40;3.10;;;23.00;50.60;;;;;;5076137;28;20068;-72
2022/04/03 12:14:08;;;;;;;3.00;2.80;;;23.00;50.30;;;;;;5075274;28;20462;-72
2022/04/03 12:16:37;;;;;;;3.25;2.95;;;23.00;49.70;;;;;;5074988;28;20041;-72
2022/04/03 12:19:08;;;;;;;3.90;3.25;;;23.10;49.60;;;;;;5075440;28;20036;-72
2022/04/03 12:21:57;;;;;;;3.55;3.17;;;23.10;50.40;;;;;;5075727;28;20143;-72
2022/04/03 12:24:25;;;;;;;3.50;3.20;;;23.00;49.50;;;;;;5076049;28;20041;-72
2022/04/03 12:26:58;;;;;;;4.10;3.60;;;23.00;51.00;;;;;;5075737;28;20247;-72
2022/04/03 12:29:28;;;;;;;3.38;3.10;;;22.80;51.00;;;;;;5075770;28;20041;-72
2022/04/03 12:32:21;;;;;;;6.00;3.40;;;22.90;50.70;;;;;;5075731;28;20071;-72
2022/04/03 12:34:50;;;;;;;3.78;2.80;;;22.90;51.50;;;;;;5072448;28;20041;-72
2022/04/03 12:37:19;;;;;;;3.33;3.03;;;22.90;51.30;;;;;;5075738;28;20044;-72
2022/04/03 12:39:46;;;;;;;3.50;3.20;;;23.00;51.50;;;;;;5074999;28;20077;-72
2022/04/03 12:42:25;;;;;;;4.18;3.78;;;22.90;49.80;;;;;;5075374;28;20056;-72
2022/04/03 12:45:08;;;;;;;4.53;3.25;;;22.90;50.10;;;;;;5074941;28;20051;-72
2022/04/03 12:47:43;;;;;;;3.55;3.22;;;22.90;51.90;;;;;;5074623;28;20072;-72
2022/04/03 12:50:16;;;;;;;3.03;2.60;;;22.90;50.90;;;;;;5073872;28;20037;-72